Time;durP1;ratioP1;P1;durP2;ratioP2;P2;SDS_P1;SDS_P2;PMS_P1;PMS_P2;Temp;Humidity;BMP_temperature;BMP_pressure;BME280_temperature;BME280_humidity;BME280_pressure;Samples;Min_cycle;Max_cycle;Signal;HPM_P1;HPM_P2
2021/06/12 00:01:37;;;;;;;0.30;0.10;;;;;;;;;;5005448;28;20027;-69
2021/06/12 00:04:04;;;;;;;0.98;0.30;;;;;;;;;;4994458;28;20038;-69
2021/06/12 00:06:31;;;;;;;0.13;0.10;;;;;;;;;;5004468;28;20030;-69
2021/06/12 00:08:58;;;;;;;0.30;0.20;;;;;;;;;;5014152;28;20018;-69
2021/06/12 00:11:26;;;;;;;1.33;0.30;;;;;;;;;;5012666;28;20105;-69
2021/06/12 00:13:53;;;;;;;0.30;0.20;;;;;;;;;;5012914;28;20126;-69
2021/06/12 00:16:20;;;;;;;0.45;0.20;;;;;;;;;;5011395;28;20045;-69
2021/06/12 00:18:48;;;;;;;0.40;0.20;;;;;;;;;;5014159;28;20033;-69
2021/06/12 00:21:15;;;;;;;0.25;0.20;;;;;;;;;;5012535;28;20030;-69
2021/06/12 00:23:42;;;;;;;1.65;0.10;;;;;;;;;;5013917;28;20133;-69
2021/06/12 00:26:09;;;;;;;0.40;0.20;;;;;;;;;;5010546;28;20022;-69
2021/06/12 00:28:37;;;;;;;0.70;0.22;;;;;;;;;;5004177;28;20030;-69
2021/06/12 00:31:05;;;;;;;0.10;0.10;;;;;;;;;;5000179;28;20449;-69
2021/06/12 00:33:32;;;;;;;0.55;0.25;;;;;;;;;;5013655;28;20427;-69
2021/06/12 00:36:00;;;;;;;0.22;0.03;;;;;;;;;;5011501;28;20397;-69
2021/06/12 00:38:27;;;;;;;1.00;0.22;;;;;;;;;;5012233;28;20021;-69
2021/06/12 00:40:54;;;;;;;1.00;0.10;;;;;;;;;;5010070;28;20030;-69
2021/06/12 00:43:21;;;;;;;0.30;0.10;;;;;;;;;;5013597;28;20037;-69
2021/06/12 00:45:48;;;;;;;0.85;0.10;;;;;;;;;;5009636;28;20030;-69
2021/06/12 00:48:15;;;;;;;0.47;0.13;;;;;;;;;;5012737;28;20463;-69
2021/06/12 00:50:43;;;;;;;0.50;0.10;;;;;;;;;;5012541;28;20083;-69
2021/06/12 00:53:10;;;;;;;0.35;0.17;;;;;;;;;;5009534;28;20105;-69
2021/06/12 00:55:37;;;;;;;0.75;0.10;;;;;;;;;;5003759;28;20080;-69
2021/06/12 00:58:05;;;;;;;0.55;0.10;;;;;;;;;;5012038;28;20030;-69
2021/06/12 01:00:32;;;;;;;0.32;0.10;;;;;;;;;;5011358;28;20108;-68
2021/06/12 01:02:59;;;;;;;0.30;0.10;;;;;;;;;;5011860;28;20380;-69
2021/06/12 01:05:26;;;;;;;1.98;0.40;;;;;;;;;;5007146;28;20088;-69
2021/06/12 01:07:53;;;;;;;1.42;0.28;;;;;;;;;;5011948;28;20026;-69
2021/06/12 01:10:21;;;;;;;0.28;0.10;;;;;;;;;;5011556;28;20483;-69
2021/06/12 01:12:48;;;;;;;0.63;0.30;;;;;;;;;;4993468;28;20034;-69
2021/06/12 01:15:15;;;;;;;0.32;0.20;;;;;;;;;;5004357;28;20029;-69
2021/06/12 01:17:54;;;;;;;0.10;0.10;;;;;;;;;;5012612;28;20552;-69
2021/06/12 01:20:37;;;;;;;0.55;0.30;;;;;;;;;;5011429;28;20109;-69
2021/06/12 01:23:07;;;;;;;0.15;0.15;;;;;;;;;;5011802;28;20022;-69
2021/06/12 01:25:34;;;;;;;3.53;0.30;;;;;;;;;;5010746;28;20065;-69
2021/06/12 01:28:01;;;;;;;0.20;0.20;;;;;;;;;;5012891;28;20565;-69
2021/06/12 01:30:32;;;;;;;0.45;0.20;;;;;;;;;;5012422;28;20045;-69
2021/06/12 01:33:01;;;;;;;1.00;0.20;;;;;;;;;;4992994;28;20025;-69
2021/06/12 01:35:35;;;;;;;1.75;0.20;;;;;;;;;;4993816;28;20545;-69
2021/06/12 01:38:02;;;;;;;;;;;;;;;;;;5012763;28;20052;-69
2021/06/12 01:40:31;;;;;;;0.22;0.10;;;;;;;;;;5010511;28;19917;-69
2021/06/12 01:43:01;;;;;;;0.38;0.13;;;;;;;;;;5010805;28;20022;-69
2021/06/12 01:45:29;;;;;;;0.60;0.20;;;;;;;;;;5010651;28;20029;-69
2021/06/12 01:47:56;;;;;;;1.05;0.10;;;;;;;;;;5006885;28;20019;-69
2021/06/12 01:50:26;;;;;;;0.93;0.30;;;;;;;;;;5000511;28;20940;-69
2021/06/12 01:52:54;;;;;;;0.70;0.10;;;;;;;;;;5001058;28;20533;-69
2021/06/12 01:55:23;;;;;;;0.30;0.10;;;;;;;;;;5011014;28;20028;-69
2021/06/12 01:57:50;;;;;;;3.58;0.10;;;;;;;;;;5012441;28;20518;-69
2021/06/12 02:00:18;;;;;;;2.28;0.22;;;;;;;;;;5010692;28;20327;-69
2021/06/12 02:02:47;;;;;;;0.95;0.13;;;;;;;;;;4992544;28;20034;-69
2021/06/12 02:05:15;;;;;;;1.30;0.10;;;;;;;;;;4992758;28;20026;-69
2021/06/12 02:07:44;;;;;;;0.10;0.10;;;;;;;;;;5006387;28;20021;-69
2021/06/12 02:10:14;;;;;;;0.35;0.10;;;;;;;;;;5010954;28;20083;-69
2021/06/12 02:12:42;;;;;;;0.85;0.30;;;;;;;;;;5011385;28;20017;-70
2021/06/12 02:15:10;;;;;;;0.20;0.10;;;;;;;;;;5010505;28;20546;-69
2021/06/12 02:17:37;;;;;;;0.20;0.10;;;;;;;;;;5005167;28;20030;-69
2021/06/12 02:20:06;;;;;;;1.38;0.10;;;;;;;;;;5010113;28;20022;-69
2021/06/12 02:22:34;;;;;;;0.80;0.10;;;;;;;;;;5010994;28;20344;-70
2021/06/12 02:25:01;;;;;;;1.23;0.20;;;;;;;;;;5011982;28;20046;-69
2021/06/12 02:27:30;;;;;;;1.10;0.10;;;;;;;;;;5010519;28;20030;-69
2021/06/12 02:29:57;;;;;;;1.38;0.20;;;;;;;;;;5012157;28;20466;-69
2021/06/12 02:32:24;;;;;;;0.88;0.20;;;;;;;;;;5010199;28;20037;-69
2021/06/12 02:34:52;;;;;;;0.85;0.30;;;;;;;;;;5012261;28;20426;-69
2021/06/12 02:37:19;;;;;;;0.30;0.20;;;;;;;;;;5007377;28;20483;-70
2021/06/12 02:39:46;;;;;;;0.10;0.10;;;;;;;;;;5011415;28;20022;-69
2021/06/12 02:42:13;;;;;;;0.30;0.20;;;;;;;;;;4999399;28;20387;-70
2021/06/12 02:44:40;;;;;;;0.10;0.10;;;;;;;;;;5002147;28;20026;-70
2021/06/12 02:47:11;;;;;;;0.30;0.10;;;;;;;;;;5008938;28;20029;-69
2021/06/12 02:49:39;;;;;;;1.05;0.40;;;;;;;;;;5010135;28;20034;-69
2021/06/12 02:52:11;;;;;;;0.65;0.10;;;;;;;;;;5008480;28;20498;-69
2021/06/12 02:54:39;;;;;;;1.80;0.82;;;;;;;;;;5010517;28;20034;-70
2021/06/12 02:57:07;;;;;;;0.70;0.30;;;;;;;;;;5010476;28;20458;-70
2021/06/12 02:59:35;;;;;;;1.70;0.80;;;;;;;;;;5011893;28;20029;-69
2021/06/12 03:02:03;;;;;;;0.25;0.20;;;;;;;;;;5010046;28;20026;-69
2021/06/12 03:04:31;;;;;;;1.00;0.52;;;;;;;;;;5011565;28;20040;-69
2021/06/12 03:06:59;;;;;;;0.28;0.10;;;;;;;;;;5010046;28;20097;-71
2021/06/12 03:09:28;;;;;;;0.57;0.10;;;;;;;;;;5011920;28;20026;-69
2021/06/12 03:11:55;;;;;;;1.45;0.20;;;;;;;;;;5005589;28;20352;-69
2021/06/12 03:14:23;;;;;;;0.57;0.35;;;;;;;;;;5000563;28;20537;-69
2021/06/12 03:16:51;;;;;;;1.00;0.10;;;;;;;;;;5014301;28;20022;-69
2021/06/12 03:19:18;;;;;;;1.42;0.40;;;;;;;;;;5015411;28;20053;-69
2021/06/12 03:21:46;;;;;;;1.35;0.43;;;;;;;;;;5013585;28;20505;-69
2021/06/12 03:24:13;;;;;;;1.42;0.20;;;;;;;;;;5013478;28;20061;-71
2021/06/12 03:26:41;;;;;;;0.32;0.20;;;;;;;;;;5013513;28;20050;-71
2021/06/12 03:29:08;;;;;;;0.35;0.10;;;;;;;;;;5015305;28;20634;-71
2021/06/12 03:31:36;;;;;;;2.47;0.28;;;;;;;;;;5012166;28;20088;-71
2021/06/12 03:34:03;;;;;;;1.33;0.20;;;;;;;;;;5010637;28;20079;-69
2021/06/12 03:36:30;;;;;;;0.80;0.50;;;;;;;;;;5004402;28;20422;-69
2021/06/12 03:38:57;;;;;;;0.50;0.20;;;;;;;;;;5003707;28;20033;-69
2021/06/12 03:41:25;;;;;;;1.10;0.60;;;;;;;;;;5007581;28;20022;-69
2021/06/12 03:43:52;;;;;;;0.40;0.20;;;;;;;;;;4995257;28;20030;-70
2021/06/12 03:46:21;;;;;;;0.43;0.30;;;;;;;;;;5001914;28;20022;-69
2021/06/12 03:48:51;;;;;;;0.85;0.30;;;;;;;;;;5014540;28;20505;-69
2021/06/12 03:51:19;;;;;;;0.68;0.30;;;;;;;;;;5012800;28;20030;-70
2021/06/12 03:53:47;;;;;;;0.50;0.10;;;;;;;;;;5014302;28;20153;-69
2021/06/12 03:56:19;;;;;;;0.22;0.10;;;;;;;;;;5011368;28;20112;-70
2021/06/12 03:58:48;;;;;;;0.73;0.20;;;;;;;;;;5002515;28;20018;-70
2021/06/12 04:01:16;;;;;;;0.50;0.30;;;;;;;;;;5001977;28;20163;-70
2021/06/12 04:03:43;;;;;;;0.17;0.00;;;;;;;;;;5014072;28;20095;-70
2021/06/12 04:06:11;;;;;;;1.17;0.30;;;;;;;;;;5012550;28;20033;-71
2021/06/12 04:08:38;;;;;;;0.65;0.30;;;;;;;;;;5014485;28;20037;-70
2021/06/12 04:11:06;;;;;;;0.25;0.10;;;;;;;;;;5011744;28;20034;-69
2021/06/12 04:13:33;;;;;;;0.22;0.10;;;;;;;;;;5014295;28;20116;-70
2021/06/12 04:16:01;;;;;;;1.10;0.10;;;;;;;;;;5011334;28;20387;-70
2021/06/12 04:18:28;;;;;;;1.42;0.20;;;;;;;;;;5012567;28;20139;-70
2021/06/12 04:20:56;;;;;;;0.30;0.20;;;;;;;;;;5012321;28;20026;-70
2021/06/12 04:23:23;;;;;;;0.25;0.17;;;;;;;;;;5011639;28;20030;-70
2021/06/12 04:25:51;;;;;;;0.95;0.22;;;;;;;;;;5012338;28;20505;-70
2021/06/12 04:28:18;;;;;;;0.28;0.10;;;;;;;;;;5012865;28;20129;-70
2021/06/12 04:30:45;;;;;;;0.20;0.10;;;;;;;;;;5012015;28;20025;-70
2021/06/12 04:33:12;;;;;;;1.13;0.45;;;;;;;;;;5002084;28;20041;-70
2021/06/12 04:35:39;;;;;;;0.30;0.20;;;;;;;;;;5012193;28;20026;-70
2021/06/12 04:38:06;;;;;;;0.47;0.20;;;;;;;;;;4998754;28;20026;-70
2021/06/12 04:40:35;;;;;;;0.50;0.20;;;;;;;;;;4995834;28;20077;-69
2021/06/12 04:43:03;;;;;;;0.57;0.28;;;;;;;;;;5013559;28;20041;-70
2021/06/12 04:45:31;;;;;;;0.98;0.38;;;;;;;;;;4995122;28;20053;-69
2021/06/12 04:47:58;;;;;;;0.63;0.30;;;;;;;;;;5009165;28;20444;-70
2021/06/12 04:50:26;;;;;;;0.75;0.30;;;;;;;;;;5012184;28;20028;-69
2021/06/12 04:52:53;;;;;;;1.42;0.10;;;;;;;;;;5012288;28;20052;-69
2021/06/12 04:55:20;;;;;;;0.25;0.20;;;;;;;;;;5010316;28;20502;-70
2021/06/12 04:57:47;;;;;;;0.60;0.13;;;;;;;;;;4991945;28;20034;-70
2021/06/12 05:00:15;;;;;;;0.40;0.20;;;;;;;;;;4993523;28;20030;-69
2021/06/12 05:02:42;;;;;;;1.02;0.30;;;;;;;;;;5013417;28;20390;-69
2021/06/12 05:05:10;;;;;;;0.75;0.20;;;;;;;;;;5011186;28;20037;-69
2021/06/12 05:07:37;;;;;;;0.30;0.20;;;;;;;;;;5012046;28;20026;-69
2021/06/12 05:10:05;;;;;;;0.35;0.22;;;;;;;;;;5013092;28;20018;-69
2021/06/12 05:12:32;;;;;;;0.28;0.00;;;;;;;;;;5011636;28;20467;-69
2021/06/12 05:15:01;;;;;;;1.10;0.40;;;;;;;;;;5012037;28;20034;-68
2021/06/12 05:17:32;;;;;;;0.20;0.10;;;;;;;;;;5011581;28;20045;-69
2021/06/12 05:19:59;;;;;;;1.20;0.10;;;;;;;;;;5013218;28;20022;-68
2021/06/12 05:22:26;;;;;;;0.90;0.30;;;;;;;;;;5010986;28;20029;-70
2021/06/12 05:24:57;;;;;;;1.17;0.20;;;;;;;;;;5011216;28;20108;-70
2021/06/12 05:27:25;;;;;;;0.25;0.10;;;;;;;;;;4998740;28;20041;-71
2021/06/12 05:29:52;;;;;;;0.70;0.30;;;;;;;;;;4993349;28;20094;-71
2021/06/12 05:32:19;;;;;;;0.20;0.13;;;;;;;;;;4996497;28;20030;-68
2021/06/12 05:34:46;;;;;;;0.82;0.30;;;;;;;;;;4991804;28;20081;-69
2021/06/12 05:37:15;;;;;;;0.30;0.10;;;;;;;;;;5008513;28;20084;-69
2021/06/12 05:39:42;;;;;;;0.13;0.10;;;;;;;;;;5012817;28;20459;-69
2021/06/12 05:42:09;;;;;;;0.65;0.10;;;;;;;;;;5010896;28;20050;-70
2021/06/12 05:44:37;;;;;;;0.93;0.10;;;;;;;;;;5011159;28;20026;-70
2021/06/12 05:47:04;;;;;;;0.77;0.10;;;;;;;;;;5012939;28;20045;-69
2021/06/12 05:49:31;;;;;;;0.08;0.00;;;;;;;;;;5003449;28;20025;-70
2021/06/12 05:51:58;;;;;;;0.38;0.10;;;;;;;;;;5009085;28;20525;-69
2021/06/12 05:54:25;;;;;;;3.55;0.55;;;;;;;;;;5012861;28;20497;-69
2021/06/12 05:56:55;;;;;;;0.77;0.30;;;;;;;;;;5010775;28;20164;-69
2021/06/12 05:59:23;;;;;;;0.30;0.10;;;;;;;;;;5012350;28;20485;-69
2021/06/12 06:01:50;;;;;;;0.20;0.10;;;;;;;;;;5009431;28;20435;-69
2021/06/12 06:04:17;;;;;;;0.50;0.20;;;;;;;;;;5010517;28;20026;-69
2021/06/12 06:06:47;;;;;;;0.35;0.10;;;;;;;;;;5010391;28;20105;-70
2021/06/12 06:09:14;;;;;;;0.55;0.20;;;;;;;;;;5012158;28;20364;-70
2021/06/12 06:11:41;;;;;;;0.95;0.35;;;;;;;;;;5010574;28;20483;-69
2021/06/12 06:14:08;;;;;;;0.20;0.10;;;;;;;;;;5011531;28;20030;-70
2021/06/12 06:16:35;;;;;;;0.40;0.30;;;;;;;;;;5011041;28;20022;-69
2021/06/12 06:19:02;;;;;;;0.65;0.35;;;;;;;;;;5009932;28;20030;-70
2021/06/12 06:21:29;;;;;;;1.17;0.47;;;;;;;;;;4999841;28;20019;-70
2021/06/12 06:23:57;;;;;;;0.60;0.30;;;;;;;;;;5007836;28;20510;-69
2021/06/12 06:26:24;;;;;;;0.68;0.28;;;;;;;;;;5008363;28;20501;-69
2021/06/12 06:28:52;;;;;;;0.85;0.40;;;;;;;;;;4995266;28;20433;-70
2021/06/12 06:31:19;;;;;;;0.90;0.30;;;;;;;;;;5001013;28;20037;-69
2021/06/12 06:33:46;;;;;;;0.98;0.57;;;;;;;;;;5010853;28;20029;-70
2021/06/12 06:36:13;;;;;;;0.80;0.40;;;;;;;;;;5010860;28;20481;-70
2021/06/12 06:38:40;;;;;;;0.95;0.40;;;;;;;;;;5011130;28;20026;-69
2021/06/12 06:41:08;;;;;;;0.82;0.47;;;;;;;;;;5009647;28;20022;-70
2021/06/12 06:43:35;;;;;;;2.13;0.43;;;;;;;;;;5011907;28;20124;-70
2021/06/12 06:46:02;;;;;;;1.27;0.60;;;;;;;;;;5011309;28;20064;-69
2021/06/12 06:48:29;;;;;;;1.00;0.65;;;;;;;;;;5015665;28;20022;-70
2021/06/12 06:50:57;;;;;;;1.75;0.50;;;;;;;;;;5013041;28;20033;-70
2021/06/12 06:53:24;;;;;;;2.00;0.50;;;;;;;;;;5013939;28;20029;-70
2021/06/12 06:55:51;;;;;;;0.80;0.50;;;;;;;;;;5013899;28;20486;-69
2021/06/12 06:58:18;;;;;;;2.05;0.73;;;;;;;;;;5014238;28;20038;-70
2021/06/12 07:00:45;;;;;;;2.13;0.77;;;;;;;;;;5014248;28;20022;-70
2021/06/12 07:03:12;;;;;;;2.33;0.80;;;;;;;;;;5015392;28;20053;-70
2021/06/12 07:05:39;;;;;;;1.50;0.80;;;;;;;;;;5013848;28;20030;-70
2021/06/12 07:08:06;;;;;;;1.73;1.08;;;;;;;;;;5013990;28;20040;-69
2021/06/12 07:10:33;;;;;;;2.17;1.10;;;;;;;;;;5014164;28;20030;-69
2021/06/12 07:13:01;;;;;;;2.72;1.30;;;;;;;;;;5015728;28;20058;-69
2021/06/12 07:15:29;;;;;;;1.42;0.77;;;;;;;;;;5007742;28;20127;-69
2021/06/12 07:17:56;;;;;;;1.45;0.80;;;;;;;;;;5012285;28;20026;-70
2021/06/12 07:20:23;;;;;;;4.55;1.40;;;;;;;;;;5003565;28;20037;-69
2021/06/12 07:22:51;;;;;;;4.07;1.00;;;;;;;;;;4996991;28;20018;-69
2021/06/12 07:25:18;;;;;;;2.72;0.98;;;;;;;;;;4995661;28;20458;-69
2021/06/12 07:27:45;;;;;;;1.40;0.85;;;;;;;;;;5014637;28;20033;-69
2021/06/12 07:30:12;;;;;;;2.47;1.00;;;;;;;;;;5014354;28;20026;-70
2021/06/12 07:32:39;;;;;;;2.20;1.10;;;;;;;;;;5016063;28;20049;-69
2021/06/12 07:35:07;;;;;;;2.63;1.40;;;;;;;;;;5013796;28;20026;-69
2021/06/12 07:37:34;;;;;;;2.30;1.20;;;;;;;;;;5013055;28;20069;-69
2021/06/12 07:40:01;;;;;;;2.40;1.25;;;;;;;;;;5013783;28;20042;-69
2021/06/12 07:42:28;;;;;;;2.45;1.42;;;;;;;;;;5013656;28;20491;-69
2021/06/12 07:44:55;;;;;;;2.50;1.45;;;;;;;;;;5014928;28;20025;-69
2021/06/12 07:47:22;;;;;;;2.83;1.35;;;;;;;;;;5013241;28;20034;-69
2021/06/12 07:49:50;;;;;;;1.58;0.88;;;;;;;;;;5014708;28;20028;-69
2021/06/12 07:52:17;;;;;;;3.20;1.45;;;;;;;;;;5011741;28;20036;-69
2021/06/12 07:54:44;;;;;;;5.25;2.55;;;;;;;;;;5013074;28;20033;-69
2021/06/12 07:57:12;;;;;;;3.63;2.33;;;;;;;;;;5013339;28;20368;-69
2021/06/12 07:59:39;;;;;;;3.75;2.35;;;;;;;;;;5014789;28;20471;-69
2021/06/12 08:02:06;;;;;;;2.72;1.52;;;;;;;;;;5013669;28;20037;-69
2021/06/12 08:04:33;;;;;;;3.92;1.70;;;;;;;;;;5014661;28;20474;-69
2021/06/12 08:07:00;;;;;;;4.18;2.08;;;;;;;;;;5009350;28;20030;-69
2021/06/12 08:09:28;;;;;;;3.10;1.50;;;;;;;;;;4995616;28;20034;-69
2021/06/12 08:11:55;;;;;;;2.92;1.55;;;;;;;;;;5010624;28;20037;-69
2021/06/12 08:14:23;;;;;;;3.70;1.75;;;;;;;;;;5013966;28;20025;-69
2021/06/12 08:16:50;;;;;;;3.10;1.95;;;;;;;;;;5011119;28;20030;-68
2021/06/12 08:19:17;;;;;;;5.03;1.95;;;;;;;;;;5014337;28;20026;-69
2021/06/12 08:21:44;;;;;;;3.10;1.58;;;;;;;;;;5012677;28;20037;-69
2021/06/12 08:24:12;;;;;;;4.57;1.80;;;;;;;;;;5013721;28;20053;-69
2021/06/12 08:26:39;;;;;;;5.07;2.50;;;;;;;;;;5012803;28;20108;-69
2021/06/12 08:29:06;;;;;;;3.42;2.17;;;;;;;;;;5014414;28;20101;-69
2021/06/12 08:31:36;;;;;;;4.25;2.10;;;;;;;;;;5011634;28;20022;-69
2021/06/12 08:34:04;;;;;;;4.05;2.33;;;;;;;;;;5013858;28;20026;-69
2021/06/12 08:36:31;;;;;;;5.57;2.75;;;;;;;;;;5013120;28;20056;-69
2021/06/12 08:38:59;;;;;;;5.00;2.85;;;;;;;;;;5014084;28;20054;-69
2021/06/12 08:41:26;;;;;;;6.43;2.72;;;;;;;;;;5013300;28;20030;-69
2021/06/12 08:43:57;;;;;;;4.10;2.42;;;;;;;;;;5012169;28;20037;-69
2021/06/12 08:46:25;;;;;;;6.43;2.60;;;;;;;;;;5003965;28;20030;-69
2021/06/12 08:48:52;;;;;;;9.00;4.50;;;;;;;;;;5013844;28;20061;-69
2021/06/12 08:51:19;;;;;;;6.22;3.38;;;;;;;;;;5012439;28;20018;-69
2021/06/12 08:53:48;;;;;;;8.75;4.10;;;;;;;;;;5013883;28;20036;-69
2021/06/12 08:56:15;;;;;;;9.57;5.25;;;;;;;;;;5012292;28;20042;-69
2021/06/12 08:58:42;;;;;;;11.23;5.82;;;;;;;;;;5013784;28;20096;-69
2021/06/12 09:01:09;;;;;;;7.32;4.10;;;;;;;;;;5012019;28;20033;-69
2021/06/12 09:03:43;;;;;;;6.30;4.10;;;;;;;;;;5012739;28;20359;-69
2021/06/12 09:06:12;;;;;;;6.88;4.55;;;;;;;;;;5007229;28;20036;-69
2021/06/12 09:08:42;;;;;;;14.18;9.52;;;;;;;;;;5009299;28;20107;-69
2021/06/12 09:11:10;;;;;;;8.55;6.82;;;;;;;;;;4998389;28;20476;-69
2021/06/12 09:13:37;;;;;;;8.38;4.90;;;;;;;;;;4993766;28;20479;-69
2021/06/12 09:16:04;;;;;;;11.50;5.22;;;;;;;;;;5009657;28;20121;-69
2021/06/12 09:18:39;;;;;;;8.82;4.47;;;;;;;;;;5013039;28;20037;-69
2021/06/12 09:21:06;;;;;;;9.75;5.82;;;;;;;;;;5009214;28;20041;-70
2021/06/12 09:23:43;;;;;;;11.52;6.65;;;;;;;;;;5011505;28;20053;-70
2021/06/12 09:26:13;;;;;;;8.70;5.15;;;;;;;;;;5011121;28;20025;-70
2021/06/12 09:29:09;;;;;;;16.65;7.78;;;;;;;;;;5011386;28;20387;-70
2021/06/12 09:31:44;;;;;;;15.15;7.95;;;;;;;;;;4998910;28;20046;-69
2021/06/12 09:34:12;;;;;;;11.90;7.10;;;;;;;;;;5012979;28;20022;-69
2021/06/12 09:36:39;;;;;;;7.40;5.03;;;;;;;;;;5010835;28;20052;-69
2021/06/12 09:39:23;;;;;;;9.60;5.03;;;;;;;;;;5012473;28;20109;-69
2021/06/12 09:41:51;;;;;;;15.32;7.68;;;;;;;;;;5009103;28;20045;-69
2021/06/12 09:44:37;;;;;;;10.77;6.80;;;;;;;;;;5012576;28;20028;-69
2021/06/12 09:47:05;;;;;;;11.90;6.60;;;;;;;;;;5010160;28;20542;-70
2021/06/12 09:49:33;;;;;;;8.32;5.30;;;;;;;;;;5012164;28;20033;-69
2021/06/12 09:52:09;;;;;;;8.05;5.43;;;;;;;;;;5010964;28;20117;-69
2021/06/12 09:54:39;;;;;;;9.85;6.75;;;;;;;;;;5011118;28;20037;-70
2021/06/12 09:57:07;;;;;;;14.45;7.15;;;;;;;;;;5005595;28;20104;-69
2021/06/12 09:59:40;;;;;;;10.45;6.30;;;;;;;;;;5006540;28;20035;-70
2021/06/12 10:02:08;;;;;;;9.52;6.20;;;;;;;;;;5010669;28;20163;-70
2021/06/12 10:04:35;;;;;;;10.55;8.20;;;;;;;;;;4999988;28;20038;-70
2021/06/12 10:07:02;;;;;;;10.77;7.00;;;;;;;;;;5006480;28;20037;-70
2021/06/12 10:09:29;;;;;;;7.25;5.82;;;;;;;;;;5012423;28;20033;-70
2021/06/12 10:11:56;;;;;;;8.32;5.30;;;;;;;;;;5009406;28;20430;-70
2021/06/12 10:14:24;;;;;;;8.20;5.13;;;;;;;;;;5011237;28;20037;-70
2021/06/12 10:16:52;;;;;;;6.85;4.75;;;;;;;;;;5010559;28;20030;-70
2021/06/12 10:19:20;;;;;;;7.57;4.95;;;;;;;;;;5012113;28;20471;-70
2021/06/12 10:21:47;;;;;;;8.57;5.43;;;;;;;;;;5009841;28;20526;-70
2021/06/12 10:24:14;;;;;;;7.13;5.20;;;;;;;;;;5010064;28;20069;-70
2021/06/12 10:26:43;;;;;;;10.20;6.63;;;;;;;;;;4999876;28;20442;-70
2021/06/12 10:29:10;;;;;;;9.25;6.15;;;;;;;;;;5011960;28;20057;-70
2021/06/12 10:31:42;;;;;;;8.23;5.28;;;;;;;;;;5010169;28;20383;-69
2021/06/12 10:34:09;;;;;;;8.45;5.97;;;;;;;;;;5011786;28;20026;-69
2021/06/12 10:36:40;;;;;;;10.55;6.22;;;;;;;;;;5009207;28;20475;-69
2021/06/12 10:39:29;;;;;;;9.95;6.82;;;;;;;;;;5012089;28;20458;-69
2021/06/12 10:42:09;;;;;;;10.23;7.05;;;;;;;;;;5009774;28;20117;-70
2021/06/12 10:44:36;;;;;;;13.50;7.82;;;;;;;;;;5011683;28;20486;-70
2021/06/12 10:47:04;;;;;;;12.85;7.03;;;;;;;;;;5008447;28;20030;-69
2021/06/12 10:49:34;;;;;;;8.50;6.38;;;;;;;;;;5010454;28;20080;-70
2021/06/12 10:52:03;;;;;;;10.02;5.35;;;;;;;;;;5005124;28;20108;-69
2021/06/12 10:54:33;;;;;;;9.02;5.32;;;;;;;;;;5006436;28;20036;-69
2021/06/12 10:57:15;;;;;;;12.63;6.25;;;;;;;;;;5008626;28;20021;-69
2021/06/12 10:59:47;;;;;;;8.88;5.25;;;;;;;;;;4997217;28;20046;-69
2021/06/12 11:04:57;;;;;;;10.07;4.53;;;;;;;;;;5012093;28;20046;-69
2021/06/12 11:07:28;;;;;;;7.70;4.88;;;;;;;;;;5010399;28;20026;-69
2021/06/12 11:10:15;;;;;;;7.78;4.93;;;;;;;;;;5011803;28;20084;-69
2021/06/12 11:12:46;;;;;;;7.75;5.03;;;;;;;;;;5011555;28;20261;-70
2021/06/12 11:15:23;;;;;;;7.78;5.35;;;;;;;;;;5009740;28;20113;-69
2021/06/12 11:18:08;;;;;;;9.52;5.25;;;;;;;;;;5008291;28;20026;-70
2021/06/12 11:20:35;;;;;;;6.78;4.32;;;;;;;;;;5008250;28;20022;-69
2021/06/12 11:23:04;;;;;;;7.82;4.63;;;;;;;;;;5010393;28;20390;-69
2021/06/12 11:25:31;;;;;;;7.20;4.20;;;;;;;;;;5008224;28;20054;-70
2021/06/12 11:28:18;;;;;;;6.13;3.35;;;;;;;;;;5011329;28;20025;-70
2021/06/12 11:31:08;;;;;;;5.63;3.28;;;;;;;;;;5010787;28;20102;-69
2021/06/12 11:34:09;;;;;;;4.63;3.33;;;;;;;;;;4961958;28;20530;-69
2021/06/12 11:36:36;;;;;;;5.10;3.08;;;;;;;;;;4979762;28;20041;-69
2021/06/12 11:39:03;;;;;;;5.15;3.28;;;;;;;;;;5002254;28;20046;-69
2021/06/12 11:41:31;;;;;;;5.50;3.17;;;;;;;;;;5013426;28;20062;-69
2021/06/12 11:44:00;;;;;;;5.55;3.20;;;;;;;;;;5013008;28;20034;-69
2021/06/12 11:46:27;;;;;;;6.30;2.63;;;;;;;;;;5008670;28;20129;-69
2021/06/12 11:48:54;;;;;;;4.93;3.20;;;;;;;;;;5005573;28;20034;-69
2021/06/12 11:51:33;;;;;;;4.35;2.85;;;;;;;;;;5009472;28;20103;-69
2021/06/12 11:54:02;;;;;;;4.25;2.90;;;;;;;;;;5003485;28;20448;-69
2021/06/12 11:56:35;;;;;;;3.60;2.60;;;;;;;;;;5012988;28;20077;-70
2021/06/12 11:59:02;;;;;;;5.60;3.33;;;;;;;;;;5013158;28;20026;-69
2021/06/12 12:01:35;;;;;;;4.90;2.75;;;;;;;;;;5012979;28;20030;-69
2021/06/12 12:04:10;;;;;;;4.05;3.10;;;;;;;;;;5012379;28;20038;-69
2021/06/12 12:06:37;;;;;;;4.07;3.10;;;;;;;;;;5012810;28;20026;-69
2021/06/12 12:09:05;;;;;;;9.40;6.63;;;;;;;;;;5014352;28;20018;-69
2021/06/12 12:11:32;;;;;;;7.07;5.13;;;;;;;;;;5012554;28;20033;-70
2021/06/12 12:14:04;;;;;;;5.60;3.30;;;;;;;;;;5013122;28;20065;-69
2021/06/12 12:16:32;;;;;;;5.43;3.50;;;;;;;;;;5001832;28;20036;-70
2021/06/12 12:19:00;;;;;;;5.40;3.50;;;;;;;;;;5013084;28;20026;-69
2021/06/12 12:21:32;;;;;;;6.30;3.55;;;;;;;;;;5012547;28;20050;-69
2021/06/12 12:23:59;;;;;;;4.40;3.40;;;;;;;;;;5013940;28;20438;-69
2021/06/12 12:26:27;;;;;;;3.70;2.67;;;;;;;;;;5012407;28;20030;-69
2021/06/12 12:29:01;;;;;;;4.22;2.58;;;;;;;;;;5014112;28;20037;-69
2021/06/12 12:31:28;;;;;;;;;;;;;;;;;;5012710;28;20018;-70
2021/06/12 12:33:55;;;;;;;6.88;2.97;;;;;;;;;;5014086;28;19987;-70
2021/06/12 12:36:23;;;;;;;3.88;2.38;;;;;;;;;;5012408;28;20152;-69
2021/06/12 12:39:09;;;;;;;3.28;2.17;;;;;;;;;;5004898;28;20042;-69
2021/06/12 12:41:36;;;;;;;7.32;3.45;;;;;;;;;;5005867;28;20025;-68
2021/06/12 12:44:17;;;;;;;4.57;3.20;;;;;;;;;;5005597;28;20398;-69
2021/06/12 12:46:45;;;;;;;6.20;4.15;;;;;;;;;;5006862;28;20025;-69
2021/06/12 12:49:32;;;;;;;4.88;3.58;;;;;;;;;;4994629;28;20373;-69
2021/06/12 12:52:04;;;;;;;5.82;4.22;;;;;;;;;;5011122;28;20037;-69
2021/06/12 12:54:33;;;;;;;5.57;3.80;;;;;;;;;;5013911;28;20425;-69
2021/06/12 12:57:10;;;;;;;5.85;3.97;;;;;;;;;;5012066;28;20076;-68
2021/06/12 12:59:38;;;;;;;6.65;4.03;;;;;;;;;;5012360;28;20029;-69
2021/06/12 13:02:09;;;;;;;5.68;3.92;;;;;;;;;;5011450;28;20034;-69
2021/06/12 13:04:38;;;;;;;5.72;4.03;;;;;;;;;;5013454;28;20045;-69
2021/06/12 13:07:05;;;;;;;6.63;4.40;;;;;;;;;;5012116;28;20120;-68
2021/06/12 13:09:33;;;;;;;6.95;4.15;;;;;;;;;;5013280;28;20026;-70
2021/06/12 13:12:04;;;;;;;5.57;4.45;;;;;;;;;;5010309;28;20030;-69
2021/06/12 13:14:31;;;;;;;6.18;4.70;;;;;;;;;;5011037;28;20030;-68
2021/06/12 13:16:59;;;;;;;5.18;4.00;;;;;;;;;;5010203;28;20034;-69
2021/06/12 13:19:33;;;;;;;5.93;3.95;;;;;;;;;;5010341;28;20029;-69
2021/06/12 13:22:00;;;;;;;6.05;3.80;;;;;;;;;;5011457;28;20026;-69
2021/06/12 13:24:27;;;;;;;7.47;3.67;;;;;;;;;;5012826;28;20438;-69
2021/06/12 13:26:54;;;;;;;6.25;3.22;;;;;;;;;;5011106;28;20080;-69
2021/06/12 13:29:23;;;;;;;6.35;4.30;;;;;;;;;;5011622;28;20124;-68
2021/06/12 13:31:51;;;;;;;6.10;3.25;;;;;;;;;;5008947;28;20117;-70
2021/06/12 13:34:43;;;;;;;5.93;3.63;;;;;;;;;;5009277;28;20060;-70
2021/06/12 13:37:17;;;;;;;5.15;3.47;;;;;;;;;;5001863;28;20046;-69
2021/06/12 13:39:50;;;;;;;6.97;4.07;;;;;;;;;;4991226;28;20360;-69
2021/06/12 13:42:19;;;;;;;5.82;3.58;;;;;;;;;;4997071;28;20105;-69
2021/06/12 13:45:02;;;;;;;6.40;3.80;;;;;;;;;;4994138;28;20056;-69
2021/06/12 13:47:29;;;;;;;5.88;4.20;;;;;;;;;;5011545;28;20029;-69
2021/06/12 13:49:57;;;;;;;6.65;3.90;;;;;;;;;;5011102;28;20018;-69
2021/06/12 13:52:24;;;;;;;6.32;4.18;;;;;;;;;;5012929;28;20113;-69
2021/06/12 13:54:51;;;;;;;5.85;3.58;;;;;;;;;;5009941;28;20040;-70
2021/06/12 13:57:19;;;;;;;4.30;3.20;;;;;;;;;;5012251;28;20348;-69
2021/06/12 13:59:46;;;;;;;3.42;2.70;;;;;;;;;;5011457;28;20105;-69
2021/06/12 14:02:14;;;;;;;4.35;3.15;;;;;;;;;;5011553;28;20080;-69
2021/06/12 14:04:41;;;;;;;3.67;2.75;;;;;;;;;;5011749;28;20030;-69
2021/06/12 14:07:08;;;;;;;3.88;3.03;;;;;;;;;;5011205;28;20033;-69
2021/06/12 14:09:35;;;;;;;3.75;2.70;;;;;;;;;;5012320;28;20018;-69
2021/06/12 14:12:03;;;;;;;3.75;2.95;;;;;;;;;;5010445;28;20037;-69
2021/06/12 14:14:31;;;;;;;5.57;2.85;;;;;;;;;;5011406;28;20030;-69
2021/06/12 14:16:58;;;;;;;5.13;3.05;;;;;;;;;;5010479;28;20044;-69
2021/06/12 14:19:25;;;;;;;4.75;2.63;;;;;;;;;;5011045;28;20037;-69
2021/06/12 14:21:52;;;;;;;3.40;2.50;;;;;;;;;;5008984;28;20026;-69
2021/06/12 14:24:20;;;;;;;3.58;2.45;;;;;;;;;;5012023;28;20402;-69
2021/06/12 14:26:51;;;;;;;3.72;2.33;;;;;;;;;;5004247;28;20501;-69
2021/06/12 14:29:18;;;;;;;3.80;2.72;;;;;;;;;;5012166;28;20080;-69
2021/06/12 14:31:46;;;;;;;3.72;2.05;;;;;;;;;;5006791;28;20041;-69
2021/06/12 14:34:13;;;;;;;4.50;2.30;;;;;;;;;;5006547;28;20042;-69
2021/06/12 14:36:41;;;;;;;4.32;2.28;;;;;;;;;;5009359;28;20061;-70
2021/06/12 14:39:09;;;;;;;4.25;2.30;;;;;;;;;;5011904;28;20018;-69
2021/06/12 14:41:37;;;;;;;3.35;2.08;;;;;;;;;;5007918;28;20109;-69
2021/06/12 14:44:05;;;;;;;2.85;1.70;;;;;;;;;;5012313;28;20506;-69
2021/06/12 14:46:32;;;;;;;3.83;2.03;;;;;;;;;;5010501;28;20422;-69
2021/06/12 14:48:59;;;;;;;3.47;2.13;;;;;;;;;;5011721;28;20033;-69
2021/06/12 14:51:26;;;;;;;3.42;1.90;;;;;;;;;;5008903;28;20145;-69
2021/06/12 14:53:53;;;;;;;4.47;1.83;;;;;;;;;;5012036;28;20045;-69
2021/06/12 14:56:20;;;;;;;2.33;1.40;;;;;;;;;;5010249;28;20475;-69